createdAt,value
2023-06-18T00:00:14.051Z,15.70
2023-06-18T00:02:41.143Z,15.65
2023-06-18T00:05:08.751Z,15.66
2023-06-18T00:07:35.900Z,15.69
2023-06-18T00:10:04.702Z,15.73
2023-06-18T00:12:31.627Z,15.76
2023-06-18T00:14:58.969Z,15.80
2023-06-18T00:17:26.897Z,15.81
2023-06-18T00:19:53.925Z,15.85
2023-06-18T00:22:23.117Z,15.89
2023-06-18T00:24:54.554Z,15.87
2023-06-18T00:27:28.032Z,15.89
2023-06-18T00:30:08.786Z,15.89
2023-06-18T00:32:50.428Z,15.87
2023-06-18T00:35:24.108Z,15.80
2023-06-18T00:37:51.342Z,15.63
2023-06-18T00:40:18.690Z,15.51
2023-06-18T00:42:46.246Z,15.42
2023-06-18T00:45:13.915Z,15.39
2023-06-18T00:47:45.951Z,15.40
2023-06-18T00:50:20.093Z,15.38
2023-06-18T00:52:49.436Z,15.36
2023-06-18T00:55:22.259Z,15.39
2023-06-18T00:58:01.040Z,15.41
2023-06-18T01:00:30.076Z,15.39
2023-06-18T01:02:58.161Z,15.29
2023-06-18T01:05:26.683Z,15.26
2023-06-18T01:07:54.383Z,15.26
2023-06-18T01:10:22.726Z,15.22
2023-06-18T01:12:50.653Z,15.16
2023-06-18T01:15:19.775Z,15.10
2023-06-18T01:17:50.055Z,15.01
2023-06-18T01:20:20.293Z,15.01
2023-06-18T01:22:50.164Z,14.94
2023-06-18T01:25:19.621Z,14.87
2023-06-18T01:27:48.088Z,14.79
2023-06-18T01:30:16.290Z,14.83
2023-06-18T01:32:43.513Z,14.94
2023-06-18T01:35:17.584Z,15.02
2023-06-18T01:38:03.359Z,15.09
2023-06-18T01:40:35.930Z,15.13
2023-06-18T01:43:44.247Z,15.15
2023-06-18T01:46:15.173Z,15.15
2023-06-18T01:48:53.893Z,15.13
2023-06-18T01:51:22.283Z,15.10
2023-06-18T01:53:52.800Z,15.05
2023-06-18T01:56:21.053Z,15.01
2023-06-18T01:58:48.545Z,14.97
2023-06-18T02:01:16.085Z,14.96
2023-06-18T02:03:43.554Z,14.94
2023-06-18T02:06:11.127Z,14.91
2023-06-18T02:08:38.147Z,14.88
2023-06-18T02:11:05.330Z,14.84
2023-06-18T02:13:32.386Z,14.83
2023-06-18T02:15:59.513Z,14.83
2023-06-18T02:18:26.937Z,14.76
2023-06-18T02:20:54.244Z,14.73
2023-06-18T02:23:21.335Z,14.66
2023-06-18T02:25:49.492Z,14.65
2023-06-18T02:28:17.163Z,14.70
2023-06-18T02:30:44.736Z,14.73
2023-06-18T02:33:12.414Z,14.74
2023-06-18T02:35:39.575Z,14.75
2023-06-18T02:38:06.684Z,14.76
2023-06-18T02:40:33.852Z,14.76
2023-06-18T02:43:00.769Z,14.79
2023-06-18T02:45:27.815Z,14.80
2023-06-18T02:47:55.211Z,14.82
2023-06-18T02:50:22.818Z,14.85
2023-06-18T02:52:50.223Z,14.89
2023-06-18T02:55:17.765Z,14.91
2023-06-18T02:57:45.306Z,14.90
2023-06-18T03:00:14.419Z,14.89
2023-06-18T03:02:42.847Z,14.88
2023-06-18T03:05:11.010Z,14.90
2023-06-18T03:07:38.607Z,14.91
2023-06-18T03:10:07.073Z,14.90
2023-06-18T03:12:34.134Z,14.86
2023-06-18T03:15:01.071Z,14.91
2023-06-18T03:17:29.284Z,14.94
2023-06-18T03:19:56.385Z,14.95
2023-06-18T03:22:23.537Z,14.98
2023-06-18T03:24:51.150Z,14.97
2023-06-18T03:27:18.237Z,14.97
2023-06-18T03:29:45.794Z,15.07
2023-06-18T03:32:12.863Z,15.13
2023-06-18T03:34:43.972Z,15.08
2023-06-18T03:37:11.031Z,15.05
2023-06-18T03:39:38.173Z,15.05
2023-06-18T03:42:06.115Z,15.03
2023-06-18T03:44:33.004Z,15.04
2023-06-18T03:47:00.663Z,15.06
2023-06-18T03:49:27.590Z,15.05
2023-06-18T03:51:54.615Z,15.11
2023-06-18T03:54:21.904Z,15.13
2023-06-18T03:56:49.139Z,15.16
2023-06-18T03:59:16.055Z,15.21
2023-06-18T04:01:43.882Z,15.28
2023-06-18T04:04:10.793Z,15.27
2023-06-18T04:06:37.722Z,15.26
2023-06-18T04:09:04.971Z,15.23
2023-06-18T04:11:32.021Z,15.23
2023-06-18T04:13:59.886Z,15.32
2023-06-18T04:16:27.057Z,15.40
2023-06-18T04:18:54.321Z,15.44
2023-06-18T04:21:21.330Z,15.53
2023-06-18T04:23:48.267Z,15.59
2023-06-18T04:26:15.409Z,15.60
2023-06-18T04:28:42.355Z,15.59
2023-06-18T04:31:09.405Z,15.54
2023-06-18T04:33:36.452Z,15.54
2023-06-18T04:36:04.017Z,15.52
2023-06-18T04:38:31.057Z,15.54
2023-06-18T04:40:58.143Z,15.65
2023-06-18T04:43:25.372Z,15.69
2023-06-18T04:45:53.719Z,15.71
2023-06-18T04:48:21.226Z,15.75
2023-06-18T04:50:48.217Z,15.74
2023-06-18T04:53:15.370Z,15.77
2023-06-18T04:55:43.000Z,15.80
2023-06-18T04:58:09.864Z,15.79
2023-06-18T05:00:36.820Z,15.75
2023-06-18T05:03:05.991Z,15.73
2023-06-18T05:05:34.182Z,15.70
2023-06-18T05:08:01.221Z,15.72
2023-06-18T05:10:33.603Z,15.81
2023-06-18T05:13:05.099Z,15.95
2023-06-18T05:15:38.868Z,16.04
2023-06-18T05:18:10.377Z,16.13
2023-06-18T05:20:37.686Z,16.16
2023-06-18T05:23:04.684Z,16.23
2023-06-18T05:25:31.740Z,16.39
2023-06-18T05:27:58.917Z,16.53
2023-06-18T05:30:26.092Z,16.62
2023-06-18T05:32:53.407Z,16.78
2023-06-18T05:35:20.336Z,17.04
2023-06-18T05:37:47.177Z,17.29
2023-06-18T05:40:14.218Z,17.53
2023-06-18T05:42:41.378Z,17.74
2023-06-18T05:45:09.487Z,17.95
2023-06-18T05:47:36.746Z,18.12
2023-06-18T05:50:04.135Z,18.37
2023-06-18T05:52:31.327Z,18.55
2023-06-18T05:54:58.554Z,18.59
2023-06-18T05:57:25.725Z,18.60
2023-06-18T05:59:52.874Z,18.64
2023-06-18T06:02:19.886Z,18.67
2023-06-18T06:04:47.183Z,18.78
2023-06-18T06:07:14.278Z,19.02
2023-06-18T06:09:41.630Z,19.22
2023-06-18T06:12:09.576Z,19.42
2023-06-18T06:14:36.550Z,19.61
2023-06-18T06:17:03.996Z,19.72
2023-06-18T06:19:31.080Z,19.69
2023-06-18T06:21:58.318Z,19.91
2023-06-18T06:24:25.185Z,20.12
2023-06-18T06:26:52.751Z,20.37
2023-06-18T06:29:19.633Z,20.55
2023-06-18T06:31:46.679Z,20.72
2023-06-18T06:34:13.966Z,21.02
2023-06-18T06:36:41.378Z,21.23
2023-06-18T06:39:08.524Z,21.23
2023-06-18T06:41:35.984Z,21.20
2023-06-18T06:44:06.995Z,21.32
2023-06-18T06:46:34.118Z,21.30
2023-06-18T06:49:01.416Z,21.25
2023-06-18T06:51:28.368Z,21.35
2023-06-18T06:53:55.618Z,21.54
2023-06-18T06:56:22.917Z,21.73
2023-06-18T06:58:51.418Z,21.93
2023-06-18T07:01:23.178Z,22.11
2023-06-18T07:03:50.602Z,22.19
2023-06-18T07:06:17.808Z,22.45
2023-06-18T07:08:45.154Z,22.61
2023-06-18T07:11:12.674Z,22.62
2023-06-18T07:13:40.261Z,22.85
2023-06-18T07:16:07.406Z,23.05
2023-06-18T07:18:34.590Z,22.83
2023-06-18T07:21:02.158Z,22.88
2023-06-18T07:23:29.332Z,23.28
2023-06-18T07:25:56.725Z,23.59
2023-06-18T07:28:24.086Z,23.77
2023-06-18T07:30:51.071Z,24.01
2023-06-18T07:33:18.073Z,24.28
2023-06-18T07:35:45.119Z,24.41
2023-06-18T07:38:12.190Z,24.62
2023-06-18T07:40:40.237Z,24.94
2023-06-18T07:43:07.271Z,25.06
2023-06-18T07:45:35.361Z,25.13
2023-06-18T07:48:02.943Z,25.15
2023-06-18T07:50:30.194Z,25.16
2023-06-18T07:52:57.308Z,24.99
2023-06-18T07:55:24.625Z,24.97
2023-06-18T07:57:51.963Z,25.25
2023-06-18T08:00:19.778Z,25.56
2023-06-18T08:02:47.787Z,25.93
2023-06-18T08:05:14.862Z,26.13
2023-06-18T08:07:41.966Z,26.18
2023-06-18T08:10:10.031Z,26.14
2023-06-18T08:12:37.283Z,25.86
2023-06-18T08:15:04.802Z,25.83
2023-06-18T08:17:31.799Z,25.97
2023-06-18T08:19:58.685Z,25.91
2023-06-18T08:22:27.558Z,25.91
2023-06-18T08:24:54.756Z,26.34
2023-06-18T08:27:22.071Z,26.69
2023-06-18T08:29:49.156Z,26.83
2023-06-18T08:32:16.377Z,26.95
2023-06-18T08:34:47.980Z,26.82
2023-06-18T08:37:15.245Z,26.59
2023-06-18T08:39:42.355Z,26.39
2023-06-18T08:42:10.400Z,26.12
2023-06-18T08:44:37.802Z,25.76
2023-06-18T08:47:05.885Z,25.44
2023-06-18T08:49:34.034Z,25.23
2023-06-18T08:52:04.071Z,25.34
2023-06-18T08:54:35.712Z,25.66
2023-06-18T08:57:29.152Z,26.19
2023-06-18T08:59:58.877Z,26.29
2023-06-18T09:02:27.460Z,26.12
2023-06-18T09:04:55.597Z,26.07
2023-06-18T09:07:26.173Z,26.14
2023-06-18T09:09:53.655Z,26.61
2023-06-18T09:12:21.234Z,27.13
2023-06-18T09:14:48.612Z,27.33
2023-06-18T09:17:17.606Z,27.46
2023-06-18T09:19:45.426Z,27.42
2023-06-18T09:22:18.064Z,27.17
2023-06-18T09:24:45.715Z,26.98
2023-06-18T09:27:13.162Z,26.85
2023-06-18T09:29:42.853Z,27.46
2023-06-18T09:32:15.713Z,27.98
2023-06-18T09:34:44.756Z,28.31
2023-06-18T09:37:15.537Z,28.57
2023-06-18T09:39:42.486Z,28.98
2023-06-18T09:42:12.828Z,29.04
2023-06-18T09:44:41.014Z,29.20
2023-06-18T09:47:13.978Z,29.37
2023-06-18T09:49:44.100Z,29.74
2023-06-18T09:52:11.742Z,29.90
2023-06-18T09:54:41.312Z,29.80
2023-06-18T09:57:10.259Z,29.91
2023-06-18T09:59:38.407Z,29.40
2023-06-18T10:02:14.489Z,28.94
2023-06-18T10:04:41.957Z,28.57
2023-06-18T10:07:18.187Z,28.21
2023-06-18T10:09:47.672Z,27.88
2023-06-18T10:12:19.389Z,28.16
2023-06-18T10:14:47.849Z,28.66
2023-06-18T10:17:33.108Z,28.94
2023-06-18T10:20:10.844Z,29.13
2023-06-18T15:08:42.547Z,25.71
2023-06-18T15:11:09.693Z,25.82
2023-06-18T15:13:36.740Z,25.77
2023-06-18T15:16:04.296Z,25.73
2023-06-18T15:18:42.091Z,25.59
2023-06-18T15:21:09.409Z,25.38
2023-06-18T15:23:36.496Z,25.13
2023-06-18T15:26:03.764Z,24.96
2023-06-18T15:28:30.919Z,24.99
2023-06-18T15:30:58.049Z,24.88
2023-06-18T15:33:25.383Z,24.89
2023-06-18T15:35:54.715Z,24.74
2023-06-18T15:38:23.082Z,24.63
2023-06-18T15:40:50.003Z,24.65
2023-06-18T15:43:17.872Z,24.52
2023-06-18T15:45:45.438Z,24.32
2023-06-18T15:48:17.332Z,24.20
2023-06-18T15:50:44.570Z,24.17
2023-06-18T15:53:19.126Z,24.15
2023-06-18T15:55:48.981Z,24.14
2023-06-18T15:58:18.224Z,24.16
2023-06-18T16:00:46.180Z,24.15
2023-06-18T16:03:13.636Z,24.23
2023-06-18T16:05:41.221Z,24.40
2023-06-18T16:08:09.701Z,24.40
2023-06-18T16:10:38.550Z,24.44
2023-06-18T16:13:07.445Z,24.52
2023-06-18T16:15:35.213Z,24.58
2023-06-18T16:18:06.841Z,24.66
2023-06-18T16:20:34.927Z,24.79
2023-06-18T16:23:02.994Z,24.88
2023-06-18T16:25:30.694Z,24.93
2023-06-18T16:28:01.975Z,24.98
2023-06-18T16:30:30.321Z,25.00
2023-06-18T16:33:00.264Z,24.99
2023-06-18T16:35:32.503Z,24.98
2023-06-18T16:38:01.399Z,24.85
2023-06-18T16:40:28.802Z,24.78
2023-06-18T16:42:56.115Z,24.77
2023-06-18T16:45:23.796Z,24.78
2023-06-18T16:47:51.433Z,24.77
2023-06-18T16:50:19.080Z,24.73
2023-06-18T16:52:46.432Z,24.66
2023-06-18T16:55:13.688Z,24.59
2023-06-18T16:57:41.708Z,24.41
2023-06-18T17:00:09.499Z,24.19
2023-06-18T17:02:37.438Z,24.02
2023-06-18T17:05:06.046Z,23.90
2023-06-18T17:07:33.581Z,23.86
2023-06-18T17:10:01.215Z,23.82
2023-06-18T17:12:28.332Z,23.74
2023-06-18T17:15:01.269Z,23.63
2023-06-18T17:17:29.151Z,23.59
2023-06-18T17:19:56.531Z,23.52
2023-06-18T17:22:23.801Z,23.44
2023-06-18T17:24:51.202Z,23.35
2023-06-18T17:27:18.992Z,23.33
2023-06-18T17:29:47.078Z,23.31
2023-06-18T17:32:14.114Z,23.26
2023-06-18T17:34:41.365Z,23.22
2023-06-18T17:37:08.414Z,23.20
2023-06-18T17:39:35.354Z,23.12
2023-06-18T17:42:05.676Z,23.08
2023-06-18T17:44:33.131Z,23.08
2023-06-18T17:47:00.198Z,23.03
2023-06-18T17:49:27.636Z,22.96
2023-06-18T17:51:54.680Z,22.88
2023-06-18T17:54:21.973Z,22.79
2023-06-18T17:56:49.937Z,22.71
2023-06-18T17:59:17.251Z,22.67
2023-06-18T18:01:44.700Z,22.59
2023-06-18T18:04:12.564Z,22.49
2023-06-18T18:06:39.859Z,22.41
2023-06-18T18:09:07.266Z,22.35
2023-06-18T18:11:34.447Z,22.28
2023-06-18T18:14:01.673Z,22.22
2023-06-18T18:16:28.962Z,22.15
2023-06-18T18:18:57.873Z,22.08
2023-06-18T18:21:25.299Z,22.01
2023-06-18T18:23:52.998Z,21.96
2023-06-18T18:26:24.061Z,21.92
2023-06-18T18:28:56.530Z,21.87
2023-06-18T18:31:23.487Z,21.83
2023-06-18T18:33:50.585Z,21.79
2023-06-18T18:36:18.028Z,21.77
2023-06-18T18:38:45.374Z,21.73
2023-06-18T18:41:12.993Z,21.67
2023-06-18T18:43:40.401Z,21.64
2023-06-18T18:46:07.926Z,21.59
2023-06-18T18:48:35.149Z,21.54
2023-06-18T18:51:02.538Z,21.53
2023-06-18T18:53:29.652Z,21.51
2023-06-18T18:55:59.876Z,21.51
2023-06-18T18:58:30.457Z,21.50
2023-06-18T19:00:59.611Z,21.47
2023-06-18T19:03:27.593Z,21.43
2023-06-18T19:05:55.488Z,21.40
2023-06-18T19:08:23.247Z,21.37
2023-06-18T19:10:50.638Z,21.34
2023-06-18T19:13:18.048Z,21.33
2023-06-18T19:15:46.116Z,21.29
2023-06-18T19:18:13.622Z,21.26
2023-06-18T19:20:40.933Z,21.21
2023-06-18T19:23:07.923Z,21.17
2023-06-18T19:25:34.966Z,21.10
2023-06-18T19:28:02.420Z,21.08
2023-06-18T19:30:29.455Z,21.06
2023-06-18T19:32:56.856Z,21.01
2023-06-18T19:35:24.813Z,20.97
2023-06-18T19:37:52.023Z,20.94
2023-06-18T19:40:19.278Z,20.90
2023-06-18T19:42:49.613Z,20.85
2023-06-18T19:45:16.968Z,20.80
2023-06-18T19:47:45.184Z,20.75
2023-06-18T19:50:12.524Z,20.73
2023-06-18T19:52:39.935Z,20.69
2023-06-18T19:55:08.001Z,20.64
2023-06-18T19:57:34.971Z,20.63
2023-06-18T20:00:02.022Z,20.65
2023-06-18T20:02:29.185Z,20.64
2023-06-18T20:04:57.528Z,20.64
2023-06-18T20:07:24.539Z,20.64
2023-06-18T20:09:51.612Z,20.65
2023-06-18T20:12:19.493Z,20.65
2023-06-18T20:14:47.035Z,20.65
2023-06-18T20:17:13.974Z,20.62
2023-06-18T20:19:42.215Z,20.60
2023-06-18T20:22:10.692Z,20.56
2023-06-18T20:24:40.793Z,20.54
2023-06-18T20:27:08.661Z,20.54
2023-06-18T20:29:35.857Z,20.51
2023-06-18T20:32:03.270Z,20.46
2023-06-18T20:34:30.459Z,20.40
2023-06-18T20:36:57.659Z,20.40
2023-06-18T20:39:25.078Z,20.39
2023-06-18T20:41:52.372Z,20.36
2023-06-18T20:44:19.767Z,20.31
2023-06-18T20:46:46.821Z,20.27
2023-06-18T20:49:15.528Z,20.24
2023-06-18T20:51:43.413Z,20.23
2023-06-18T20:54:10.823Z,20.25
2023-06-18T20:56:38.400Z,20.24
2023-06-18T20:59:05.616Z,20.17
2023-06-18T21:01:32.991Z,20.08
2023-06-18T21:04:00.376Z,20.00
2023-06-18T21:06:27.676Z,19.87
2023-06-18T21:08:55.255Z,19.77
2023-06-18T21:11:23.535Z,19.72
2023-06-18T21:13:51.009Z,19.64
2023-06-18T21:16:18.363Z,19.60
2023-06-18T21:18:45.519Z,19.57
2023-06-18T21:21:12.821Z,19.52
2023-06-18T21:23:39.768Z,19.48
2023-06-18T21:26:06.806Z,19.46
2023-06-18T21:28:33.866Z,19.43
2023-06-18T21:31:01.732Z,19.35
2023-06-18T21:33:29.203Z,19.29
2023-06-18T21:35:56.419Z,19.25
2023-06-18T21:38:23.823Z,19.18
2023-06-18T21:40:51.846Z,19.03
2023-06-18T21:43:18.786Z,18.91
2023-06-18T21:45:47.299Z,18.83
2023-06-18T21:48:15.531Z,18.68
2023-06-18T21:50:42.477Z,18.49
2023-06-18T21:53:09.525Z,18.43
2023-06-18T21:55:36.575Z,18.40
2023-06-18T21:58:03.913Z,18.32
2023-06-18T22:00:31.327Z,18.25
2023-06-18T22:02:58.544Z,18.22
2023-06-18T22:05:26.131Z,18.23
2023-06-18T22:07:53.495Z,18.24
2023-06-18T22:10:20.992Z,18.24
2023-06-18T22:12:48.608Z,18.22
2023-06-18T22:15:15.596Z,18.12
2023-06-18T22:17:42.666Z,17.98
2023-06-18T22:20:10.963Z,17.89
2023-06-18T22:22:38.218Z,17.86
2023-06-18T22:25:06.439Z,17.83
2023-06-18T22:27:33.584Z,17.79
2023-06-18T22:30:01.075Z,17.70
2023-06-18T22:32:28.303Z,17.63
2023-06-18T22:34:55.493Z,17.55
2023-06-18T22:37:22.955Z,17.52
2023-06-18T22:39:50.218Z,17.47
2023-06-18T22:42:17.740Z,17.34
2023-06-18T22:44:44.761Z,17.23
2023-06-18T22:47:12.103Z,17.17
2023-06-18T22:49:39.490Z,17.11
2023-06-18T22:52:07.223Z,17.09
2023-06-18T22:54:34.539Z,17.12
2023-06-18T22:57:01.626Z,17.14
2023-06-18T22:59:28.558Z,17.11
2023-06-18T23:01:56.372Z,17.07
2023-06-18T23:04:23.823Z,17.06
2023-06-18T23:06:51.171Z,17.00
2023-06-18T23:09:18.678Z,16.93
2023-06-18T23:11:46.291Z,16.89
2023-06-18T23:14:14.945Z,16.90
2023-06-18T23:16:42.914Z,16.81
2023-06-18T23:19:10.247Z,16.69
2023-06-18T23:21:46.819Z,16.56
2023-06-18T23:24:16.113Z,16.42
2023-06-18T23:26:43.813Z,16.29
2023-06-18T23:29:11.304Z,16.15
2023-06-18T23:31:40.009Z,16.08
2023-06-18T23:34:08.531Z,16.09
2023-06-18T23:36:36.967Z,16.10
2023-06-18T23:39:05.425Z,16.07
2023-06-18T23:41:32.632Z,15.99
2023-06-18T23:43:59.753Z,15.93
2023-06-18T23:46:27.201Z,15.96
2023-06-18T23:48:54.286Z,16.00
2023-06-18T23:51:22.114Z,16.00
2023-06-18T23:53:49.359Z,16.04
2023-06-18T23:56:16.715Z,16.07
2023-06-18T23:58:43.651Z,16.08
